Time,TemperatureF,DewpointF,PressureIn,WindDirection,WindDirectionDegrees,WindSpeedMPH,WindSpeedGustMPH,Humidity,HourlyPrecipIn,Conditions,Clouds,dailyrainin,SoftwareType,DateUTC
2013-04-30 00:02:00,73.8,68.3,29.92,SW,225,0.6,2.3,83,0.00,CLR,,0.00,WeatherDisplay:10.37,2013-04-30 10:02:00,
2013-04-30 00:07:00,73.6,68.1,29.92,NNW,338,2.2,2.3,83,0.00,CLR,,0.00,WeatherDisplay:10.37,2013-04-30 10:07:00,
2013-04-30 00:12:00,73.2,68.1,29.92,SW,225,2.9,3.5,84,0.00,CLR,,0.00,WeatherDisplay:10.37,2013-04-30 10:12:00,
2013-04-30 00:17:00,73.2,68.1,29.92,South,180,0.0,0.0,84,0.00,CLR,,0.00,WeatherDisplay:10.37,2013-04-30 10:17:00,
2013-04-30 00:22:00,73.0,67.9,29.92,South,180,2.0,2.3,84,0.00,CLR,,0.00,WeatherDisplay:10.37,2013-04-30 10:22:00,
2013-04-30 00:27:00,73.0,67.9,29.92,SSW,202,0.0,0.0,84,0.00,CLR,,0.00,WeatherDisplay:10.37,2013-04-30 10:27:00,
2013-04-30 00:32:00,72.9,67.8,29.92,SSW,202,0.9,2.2,84,0.00,CLR,,0.00,WeatherDisplay:10.37,2013-04-30 10:32:00,
2013-04-30 00:37:00,72.7,67.9,29.92,SSW,202,0.0,0.0,85,0.00,CLR,,0.00,WeatherDisplay:10.37,2013-04-30 10:37:00,
2013-04-30 00:42:00,72.7,67.9,29.92,SSW,202,1.3,2.3,85,0.00,CLR,,0.00,WeatherDisplay:10.37,2013-04-30 10:42:00,
2013-04-30 00:47:00,72.5,67.7,29.92,West,270,0.0,1.2,85,0.00,CLR,,0.00,WeatherDisplay:10.37,2013-04-30 10:47:00,
2013-04-30 00:52:00,72.3,67.9,29.92,WNW,292,2.0,2.7,86,0.00,CLR,,0.00,WeatherDisplay:10.37,2013-04-30 10:52:00,
2013-04-30 00:57:00,72.3,67.9,29.92,West,270,1.3,2.3,86,0.00,CLR,,0.00,WeatherDisplay:10.37,2013-04-30 10:57:00,
2013-04-30 01:02:00,72.3,67.9,29.92,SW,225,0.0,0.0,86,0.00,CLR,,0.00,WeatherDisplay:10.37,2013-04-30 11:02:00,
2013-04-30 01:08:00,72.3,67.9,29.92,South,180,1.4,2.2,86,0.00,CLR,,0.00,WeatherDisplay:10.37,2013-04-30 11:08:00,
2013-04-30 01:13:00,72.3,67.9,29.92,SW,225,1.7,1.7,86,0.00,CLR,,0.00,WeatherDisplay:10.37,2013-04-30 11:13:00,
2013-04-30 01:18:00,72.1,68.0,29.92,SSW,202,2.1,2.3,87,0.00,CLR,,0.00,WeatherDisplay:10.37,2013-04-30 11:18:00,
2013-04-30 01:23:00,72.1,68.0,29.92,East,90,0.2,2.3,87,0.00,CLR,,0.00,WeatherDisplay:10.37,2013-04-30 11:23:00,
2013-04-30 01:28:00,72.0,67.9,29.92,West,270,2.9,3.7,87,0.00,CLR,,0.00,WeatherDisplay:10.37,2013-04-30 11:28:00,
2013-04-30 01:33:00,72.1,68.3,29.92,West,270,2.1,3.2,88,0.00,CLR,,0.00,WeatherDisplay:10.37,2013-04-30 11:33:00,
2013-04-30 01:38:00,72.3,68.5,29.91,WNW,292,0.4,1.2,88,0.00,CLR,,0.00,WeatherDisplay:10.37,2013-04-30 11:38:00,
2013-04-30 01:43:00,72.1,68.3,29.91,South,180,0.0,2.3,88,0.00,CLR,,0.00,WeatherDisplay:10.37,2013-04-30 11:43:00,
2013-04-30 01:48:00,72.1,68.3,29.91,West,270,1.7,1.7,88,0.00,CLR,,0.00,WeatherDisplay:10.37,2013-04-30 11:48:00,
2013-04-30 01:53:00,72.1,68.3,29.91,East,90,0.0,1.2,88,0.00,CLR,,0.00,WeatherDisplay:10.37,2013-04-30 11:53:00,
2013-04-30 01:58:00,71.8,68.1,29.91,East,90,0.0,0.0,88,0.00,CLR,,0.00,WeatherDisplay:10.37,2013-04-30 11:58:00,
2013-04-30 02:03:00,71.8,68.1,29.92,SW,225,2.1,2.3,88,0.00,CLR,,0.00,WeatherDisplay:10.37,2013-04-30 12:03:00,
2013-04-30 02:08:00,71.8,68.1,29.92,SW,225,0.3,2.3,88,0.00,CLR,,0.00,WeatherDisplay:10.37,2013-04-30 12:08:00,
2013-04-30 02:13:00,71.6,67.9,29.91,South,180,0.4,1.2,88,0.00,CLR,,0.00,WeatherDisplay:10.37,2013-04-30 12:13:00,
2013-04-30 02:19:00,71.6,67.9,29.91,South,180,2.0,2.2,88,0.00,CLR,,0.00,WeatherDisplay:10.37,2013-04-30 12:19:00,
2013-04-30 02:24:00,71.6,67.9,29.91,South,180,0.3,1.2,88,0.00,CLR,,0.00,WeatherDisplay:10.37,2013-04-30 12:24:00,
2013-04-30 02:29:00,72.0,68.6,29.91,East,90,1.9,2.3,89,0.00,CLR,,0.00,WeatherDisplay:10.37,2013-04-30 12:29:00,
2013-04-30 02:34:00,71.6,68.2,29.91,ESE,112,0.0,0.0,89,0.00,CLR,,0.00,WeatherDisplay:10.37,2013-04-30 12:34:00,
2013-04-30 02:39:00,71.4,68.0,29.91,SSW,202,2.3,2.3,89,0.00,CLR,,0.00,WeatherDisplay:10.37,2013-04-30 12:39:00,
2013-04-30 02:44:00,71.4,68.0,29.91,SSW,202,0.0,0.0,89,0.00,CLR,,0.00,WeatherDisplay:10.37,2013-04-30 12:44:00,
2013-04-30 02:49:00,71.2,67.8,29.91,SSW,202,0.0,0.0,89,0.00,CLR,,0.00,WeatherDisplay:10.37,2013-04-30 12:49:00,
2013-04-30 02:54:00,71.2,67.8,29.91,SSE,158,0.0,0.0,89,0.00,CLR,,0.00,WeatherDisplay:10.37,2013-04-30 12:54:00,
2013-04-30 02:59:00,71.4,68.3,29.90,South,180,2.5,2.7,90,0.00,CLR,,0.00,WeatherDisplay:10.37,2013-04-30 12:59:00,
2013-04-30 03:04:00,71.4,68.3,29.90,South,180,0.0,0.0,90,0.00,CLR,,0.00,WeatherDisplay:10.37,2013-04-30 13:04:00,
2013-04-30 03:09:00,71.4,68.3,29.90,South,180,2.1,2.7,90,0.00,CLR,,0.00,WeatherDisplay:10.37,2013-04-30 13:09:00,
2013-04-30 03:14:00,71.4,68.3,29.89,South,180,1.1,1.2,90,0.00,CLR,,0.00,WeatherDisplay:10.37,2013-04-30 13:14:00,
2013-04-30 03:19:00,71.4,68.3,29.89,SSW,202,0.6,2.7,90,0.00,CLR,,0.00,WeatherDisplay:10.37,2013-04-30 13:19:00,
2013-04-30 03:24:00,71.6,68.5,29.90,SSW,202,1.1,2.3,90,0.00,CLR,,0.00,WeatherDisplay:10.37,2013-04-30 13:24:00,
2013-04-30 03:30:00,71.4,68.3,29.90,SSW,202,0.0,0.0,90,0.00,CLR,,0.00,WeatherDisplay:10.37,2013-04-30 13:30:00,
2013-04-30 03:35:00,71.4,68.3,29.90,South,184,0.0,0.0,90,0.00,CLR,,0.00,WeatherDisplay:10.37,2013-04-30 13:35:00,
2013-04-30 03:40:00,71.4,68.7,29.89,SSE,159,0.0,0.0,91,0.00,CLR,,0.00,WeatherDisplay:10.37,2013-04-30 13:40:00,
2013-04-30 03:45:00,71.6,68.8,29.89,West,260,2.0,3.0,91,0.00,CLR,,0.00,WeatherDisplay:10.37,2013-04-30 13:45:00,
2013-04-30 03:50:00,72.1,69.3,29.89,WSW,244,0.0,3.0,91,0.00,CLR,,0.00,WeatherDisplay:10.37,2013-04-30 13:50:00,
2013-04-30 03:55:00,72.1,69.3,29.89,SW,225,0.0,0.0,91,0.00,CLR,,0.00,WeatherDisplay:10.37,2013-04-30 13:55:00,
2013-04-30 04:00:00,72.3,69.8,29.89,SSW,206,0.0,0.0,92,0.00,CLR,,0.00,WeatherDisplay:10.37,2013-04-30 14:00:00,
2013-04-30 04:05:00,72.1,69.6,29.89,SE,132,0.0,0.0,92,0.00,CLR,,0.00,WeatherDisplay:10.37,2013-04-30 14:05:00,
2013-04-30 04:10:00,72.0,69.5,29.89,South,180,0.0,0.0,92,0.00,CLR,,0.00,WeatherDisplay:10.37,2013-04-30 14:10:00,
2013-04-30 04:15:00,72.3,69.8,29.90,SW,222,0.0,0.0,92,0.00,CLR,,0.00,WeatherDisplay:10.37,2013-04-30 14:15:00,
2013-04-30 04:20:00,72.3,69.8,29.90,SW,215,0.0,0.0,92,0.00,CLR,,0.00,WeatherDisplay:10.37,2013-04-30 14:20:00,
2013-04-30 04:25:00,72.3,69.8,29.90,SSW,198,0.0,0.0,92,0.00,CLR,,0.00,WeatherDisplay:10.37,2013-04-30 14:25:00,
2013-04-30 04:30:00,72.3,69.8,29.90,South,185,0.0,0.0,92,0.00,CLR,,0.00,WeatherDisplay:10.37,2013-04-30 14:30:00,
2013-04-30 04:35:00,72.0,69.5,29.90,South,180,0.0,0.0,92,0.00,CLR,,0.00,WeatherDisplay:10.37,2013-04-30 14:35:00,
2013-04-30 04:40:00,72.0,69.5,29.90,SSE,165,0.0,0.0,92,0.00,CLR,,0.00,WeatherDisplay:10.37,2013-04-30 14:40:00,
2013-04-30 04:45:00,72.0,69.6,29.90,SSW,205,0.0,0.0,92,0.00,CLR,,0.00,WeatherDisplay:10.37,2013-04-30 14:45:00,
2013-04-30 04:50:00,72.1,69.6,29.91,SW,225,0.0,0.0,92,0.00,CLR,,0.00,WeatherDisplay:10.37,2013-04-30 14:50:00,
2013-04-30 04:55:00,72.0,69.5,29.91,SSW,194,0.0,0.0,92,0.00,CLR,,0.00,WeatherDisplay:10.37,2013-04-30 14:55:00,
2013-04-30 05:00:00,71.8,69.3,29.90,South,178,0.0,0.0,92,0.00,CLR,,0.00,WeatherDisplay:10.37,2013-04-30 15:00:00,
2013-04-30 05:05:00,71.8,69.3,29.90,SSW,196,0.0,0.0,92,0.00,CLR,,0.00,WeatherDisplay:10.37,2013-04-30 15:05:00,
2013-04-30 05:10:00,71.6,69.2,29.90,SSW,202,0.0,0.0,92,0.00,CLR,,0.00,WeatherDisplay:10.37,2013-04-30 15:10:00,
2013-04-30 05:15:00,71.6,69.2,29.91,SSW,202,0.0,0.0,92,0.00,CLR,,0.00,WeatherDisplay:10.37,2013-04-30 15:15:00,
2013-04-30 05:20:00,71.6,69.2,29.91,SSW,201,0.0,0.0,92,0.00,CLR,,0.00,WeatherDisplay:10.37,2013-04-30 15:20:00,
2013-04-30 05:25:00,71.4,69.0,29.92,SSW,211,0.0,0.0,92,0.00,CLR,,0.00,WeatherDisplay:10.37,2013-04-30 15:25:00,
2013-04-30 05:30:00,71.6,69.2,29.92,SSW,212,0.0,0.0,92,0.00,CLR,,0.00,WeatherDisplay:10.37,2013-04-30 15:30:00,
2013-04-30 05:35:00,71.6,69.2,29.92,SSW,194,0.0,0.0,92,0.00,CLR,,0.00,WeatherDisplay:10.37,2013-04-30 15:35:00,
2013-04-30 05:40:00,71.8,69.3,29.92,South,182,0.0,0.0,92,0.00,CLR,,0.00,WeatherDisplay:10.37,2013-04-30 15:40:00,
2013-04-30 05:45:00,71.6,69.2,29.92,South,180,0.0,0.0,92,0.00,CLR,,0.00,WeatherDisplay:10.37,2013-04-30 15:45:00,
2013-04-30 05:50:00,71.6,69.2,29.92,SSW,202,1.9,2.3,92,0.00,CLR,,0.00,WeatherDisplay:10.37,2013-04-30 15:50:00,
2013-04-30 05:55:00,71.6,69.2,29.92,SSW,202,1.0,3.0,92,0.00,CLR,,0.00,WeatherDisplay:10.37,2013-04-30 15:55:00,
2013-04-30 06:00:00,72.0,69.9,29.92,SSW,211,2.0,3.0,93,0.00,CLR,,0.00,WeatherDisplay:10.37,2013-04-30 16:00:00,
2013-04-30 06:05:00,72.0,69.9,29.92,SW,221,0.0,2.0,93,0.00,CLR,,0.00,WeatherDisplay:10.37,2013-04-30 16:05:00,
2013-04-30 06:10:00,72.0,69.9,29.92,SW,225,0.0,0.0,93,0.00,CLR,,0.00,WeatherDisplay:10.37,2013-04-30 16:10:00,
2013-04-30 06:15:00,72.0,69.9,29.93,South,180,1.7,2.3,93,0.00,CLR,,0.00,WeatherDisplay:10.37,2013-04-30 16:15:00,
2013-04-30 06:20:00,71.8,69.7,29.93,WSW,248,0.0,0.0,93,0.00,CLR,,0.00,WeatherDisplay:10.37,2013-04-30 16:20:00,
2013-04-30 06:25:00,71.8,69.7,29.93,SSW,202,2.5,2.5,93,0.00,CLR,,0.00,WeatherDisplay:10.37,2013-04-30 16:25:00,
2013-04-30 06:30:00,72.0,69.9,29.93,SSW,202,0.0,0.0,93,0.00,CLR,,0.00,WeatherDisplay:10.37,2013-04-30 16:30:00,
2013-04-30 06:35:00,72.5,70.4,29.93,South,180,1.3,2.2,93,0.00,CLR,,0.00,WeatherDisplay:10.37,2013-04-30 16:35:00,
2013-04-30 06:40:00,73.6,71.4,29.93,South,180,0.0,0.0,93,0.00,CLR,,0.00,WeatherDisplay:10.37,2013-04-30 16:40:00,
2013-04-30 06:45:00,74.7,72.5,29.93,SSE,158,0.0,0.0,93,0.00,CLR,,0.00,WeatherDisplay:10.37,2013-04-30 16:45:00,
2013-04-30 06:50:00,75.4,73.2,29.93,South,180,0.7,2.2,93,0.00,CLR,,0.00,WeatherDisplay:10.37,2013-04-30 16:50:00,
2013-04-30 06:55:00,75.4,73.2,29.93,SW,225,0.0,0.0,93,0.00,CLR,,0.00,WeatherDisplay:10.37,2013-04-30 16:55:00,
2013-04-30 07:00:00,76.1,73.6,29.93,WSW,248,0.0,0.0,92,0.00,CLR,,0.00,WeatherDisplay:10.37,2013-04-30 17:00:00,
2013-04-30 07:05:00,75.7,72.2,29.93,NNW,338,1.1,1.2,89,0.00,CLR,,0.00,WeatherDisplay:10.37,2013-04-30 17:05:00,
2013-04-30 07:11:00,77.0,72.5,29.94,WNW,292,0.0,0.0,86,0.00,CLR,,0.00,WeatherDisplay:10.37,2013-04-30 17:11:00,
2013-04-30 07:16:00,78.4,73.5,29.94,West,270,0.0,0.0,85,0.00,CLR,,0.00,WeatherDisplay:10.37,2013-04-30 17:16:00,
2013-04-30 07:21:00,78.6,71.9,29.94,NNW,338,1.3,2.3,80,0.00,CLR,,0.00,WeatherDisplay:10.37,2013-04-30 17:21:00,
2013-04-30 07:26:00,79.2,71.4,29.94,NW,315,0.0,0.0,77,0.00,CLR,,0.00,WeatherDisplay:10.37,2013-04-30 17:26:00,
2013-04-30 07:31:00,80.2,72.3,29.94,ESE,112,1.9,2.3,77,0.00,CLR,,0.00,WeatherDisplay:10.37,2013-04-30 17:31:00,
2013-04-30 07:36:00,82.2,72.7,29.94,ESE,112,2.6,2.6,73,0.00,CLR,,0.00,WeatherDisplay:10.37,2013-04-30 17:36:00,
2013-04-30 07:41:00,82.0,72.1,29.94,NE,45,1.7,2.3,72,0.00,CLR,,0.00,WeatherDisplay:10.37,2013-04-30 17:41:00,
2013-04-30 07:46:00,81.7,71.8,29.94,NNW,338,0.3,1.1,72,0.00,CLR,,0.00,WeatherDisplay:10.37,2013-04-30 17:46:00,
2013-04-30 07:51:00,82.6,71.8,29.94,NE,45,0.8,1.7,70,0.00,CLR,,0.00,WeatherDisplay:10.37,2013-04-30 17:51:00,
2013-04-30 07:56:00,84.7,72.5,29.94,East,90,2.1,3.5,67,0.00,CLR,,0.00,WeatherDisplay:10.37,2013-04-30 17:56:00,
2013-04-30 08:01:00,82.8,70.7,29.94,North,360,2.4,2.7,67,0.00,CLR,,0.00,WeatherDisplay:10.37,2013-04-30 18:01:00,
2013-04-30 08:06:00,83.1,71.9,29.94,ENE,68,3.8,4.6,69,0.00,CLR,,0.00,WeatherDisplay:10.37,2013-04-30 18:06:00,
2013-04-30 08:11:00,84.0,71.4,29.94,ENE,68,1.2,2.2,66,0.00,CLR,,0.00,WeatherDisplay:10.37,2013-04-30 18:11:00,
2013-04-30 08:16:00,85.3,72.2,29.94,ESE,112,3.7,3.7,65,0.00,CLR,,0.00,WeatherDisplay:10.37,2013-04-30 18:16:00,
2013-04-30 08:22:00,82.9,69.9,29.94,SSE,158,1.7,2.3,65,0.00,CLR,,0.00,WeatherDisplay:10.37,2013-04-30 18:22:00,
2013-04-30 08:27:00,82.2,68.8,29.94,ESE,112,4.7,6.3,64,0.00,CLR,,0.00,WeatherDisplay:10.37,2013-04-30 18:27:00,
2013-04-30 08:32:00,83.1,69.7,29.94,SSE,158,3.0,4.6,64,0.00,CLR,,0.00,WeatherDisplay:10.37,2013-04-30 18:32:00,
2013-04-30 08:37:00,81.5,69.9,29.94,East,90,4.3,4.7,68,0.00,CLR,,0.00,WeatherDisplay:10.37,2013-04-30 18:37:00,
2013-04-30 08:42:00,81.3,69.7,29.94,NE,45,5.2,5.8,68,0.00,CLR,,0.00,WeatherDisplay:10.37,2013-04-30 18:42:00,
2013-04-30 08:47:00,82.0,71.2,29.95,NNW,338,2.3,3.5,70,0.00,CLR,,0.00,WeatherDisplay:10.37,2013-04-30 18:47:00,
2013-04-30 08:52:00,81.5,69.9,29.95,NE,45,4.2,6.9,68,0.00,CLR,,0.00,WeatherDisplay:10.37,2013-04-30 18:52:00,
2013-04-30 08:57:00,82.4,70.3,29.95,ESE,112,6.5,6.8,67,0.00,CLR,,0.00,WeatherDisplay:10.37,2013-04-30 18:57:00,
2013-04-30 09:02:00,82.6,70.5,29.95,WNW,292,2.8,5.8,67,0.00,CLR,,0.00,WeatherDisplay:10.37,2013-04-30 19:02:00,
2013-04-30 09:07:00,82.2,70.1,29.95,NE,45,4.5,5.8,67,0.00,CLR,,0.00,WeatherDisplay:10.37,2013-04-30 19:07:00,
2013-04-30 09:12:00,82.8,70.7,29.95,ESE,112,7.4,8.1,67,0.00,CLR,,0.00,WeatherDisplay:10.37,2013-04-30 19:12:00,
2013-04-30 09:17:00,81.5,70.3,29.95,ENE,68,4.1,5.8,69,0.00,CLR,,0.00,WeatherDisplay:10.37,2013-04-30 19:17:00,
2013-04-30 09:22:00,83.5,71.4,29.95,SE,135,2.5,4.6,67,0.00,CLR,,0.00,WeatherDisplay:10.37,2013-04-30 19:22:00,
2013-04-30 09:27:00,84.4,71.8,29.95,NE,45,4.4,5.3,66,0.00,CLR,,0.00,WeatherDisplay:10.37,2013-04-30 19:27:00,
2013-04-30 09:32:00,81.7,69.7,29.95,East,90,3.0,4.6,67,0.00,CLR,,0.00,WeatherDisplay:10.37,2013-04-30 19:32:00,
2013-04-30 09:37:00,82.2,70.6,29.94,ESE,112,7.8,9.2,68,0.00,CLR,,0.00,WeatherDisplay:10.37,2013-04-30 19:37:00,
2013-04-30 09:43:00,85.1,72.0,29.94,SSE,158,3.4,4.6,65,0.00,CLR,,0.00,WeatherDisplay:10.37,2013-04-30 19:43:00,
2013-04-30 09:48:00,83.8,71.7,29.95,East,90,4.7,6.9,67,0.00,CLR,,0.00,WeatherDisplay:10.37,2013-04-30 19:48:00,
2013-04-30 09:53:00,84.0,71.9,29.95,ESE,112,4.9,6.3,67,0.00,CLR,,0.00,WeatherDisplay:10.37,2013-04-30 19:53:00,
2013-04-30 09:58:00,83.8,72.5,29.95,East,90,8.8,9.2,69,0.00,CLR,,0.00,WeatherDisplay:10.37,2013-04-30 19:58:00,
2013-04-30 10:03:00,85.6,73.8,29.95,East,90,7.7,9.2,68,0.00,CLR,,0.00,WeatherDisplay:10.37,2013-04-30 20:03:00,
2013-04-30 10:08:00,85.1,72.9,29.95,East,90,5.4,5.8,67,0.00,CLR,,0.00,WeatherDisplay:10.37,2013-04-30 20:08:00,
2013-04-30 10:13:00,84.9,72.3,29.95,ENE,68,7.2,8.8,66,0.00,CLR,,0.00,WeatherDisplay:10.37,2013-04-30 20:13:00,
2013-04-30 10:18:00,85.1,72.9,29.95,SSE,158,5.6,7.8,67,0.00,CLR,,0.00,WeatherDisplay:10.37,2013-04-30 20:18:00,
2013-04-30 10:23:00,84.0,72.3,29.95,ENE,68,4.7,8.3,68,0.00,CLR,,0.00,WeatherDisplay:10.37,2013-04-30 20:23:00,
2013-04-30 10:28:00,85.3,72.6,29.95,ESE,112,5.7,6.9,66,0.00,CLR,,0.00,WeatherDisplay:10.37,2013-04-30 20:28:00,
2013-04-30 10:33:00,83.3,71.6,29.95,ENE,68,7.0,8.1,68,0.00,CLR,,0.00,WeatherDisplay:10.37,2013-04-30 20:33:00,
2013-04-30 10:38:00,82.0,71.2,29.95,NNE,22,5.5,6.9,70,0.00,CLR,,0.00,WeatherDisplay:10.37,2013-04-30 20:38:00,
2013-04-30 10:43:00,81.3,70.6,29.95,NNE,22,5.4,5.8,70,0.00,CLR,,0.00,WeatherDisplay:10.37,2013-04-30 20:43:00,
2013-04-30 10:48:00,81.3,70.6,29.95,NNE,22,5.8,5.8,70,0.00,CLR,,0.00,WeatherDisplay:10.37,2013-04-30 20:48:00,
2013-04-30 10:54:00,80.6,69.9,29.95,NNE,22,3.7,4.6,70,0.00,CLR,,0.00,WeatherDisplay:10.37,2013-04-30 20:54:00,
2013-04-30 10:59:00,79.0,71.2,29.95,ENE,68,3.6,4.7,77,0.04,RA,,0.04,WeatherDisplay:10.37,2013-04-30 20:59:00,
2013-04-30 11:04:00,78.6,71.2,29.96,WNW,292,1.8,2.3,78,0.16,RA,,0.16,WeatherDisplay:10.37,2013-04-30 21:04:00,
2013-04-30 11:09:00,78.3,72.0,29.96,SSW,202,5.7,5.8,81,0.21,RA,,0.22,WeatherDisplay:10.37,2013-04-30 21:09:00,
2013-04-30 11:14:00,77.0,71.4,29.96,SW,225,5.9,6.9,83,0.32,RA,,0.35,WeatherDisplay:10.37,2013-04-30 21:14:00,
2013-04-30 11:19:00,76.1,71.3,29.96,West,270,4.8,6.9,85,0.49,RA,,0.49,WeatherDisplay:10.37,2013-04-30 21:19:00,
2013-04-30 11:24:00,76.3,72.1,29.95,SSW,202,2.8,3.5,87,0.55,RA,,0.56,WeatherDisplay:10.37,2013-04-30 21:24:00,
2013-04-30 11:29:00,76.3,72.5,29.95,West,270,3.0,3.5,88,0.60,RA,,0.61,WeatherDisplay:10.37,2013-04-30 21:29:00,
2013-04-30 11:34:00,76.3,73.1,29.95,SSW,202,4.4,5.8,90,0.65,RA,,0.65,WeatherDisplay:10.37,2013-04-30 21:34:00,
2013-04-30 11:39:00,76.3,73.1,29.95,South,180,4.8,5.8,90,0.67,RA,,0.68,WeatherDisplay:10.37,2013-04-30 21:39:00,
2013-04-30 11:44:00,76.5,73.3,29.95,SSW,202,4.3,4.6,90,0.70,RA,,0.71,WeatherDisplay:10.37,2013-04-30 21:44:00,
2013-04-30 11:49:00,76.3,73.1,29.95,SSW,202,5.3,5.8,90,0.74,RA,,0.74,WeatherDisplay:10.37,2013-04-30 21:49:00,
2013-04-30 11:54:00,76.3,73.1,29.95,SSW,202,5.3,5.8,90,0.74,RA,,0.74,WeatherDisplay:10.37,2013-04-30 21:54:00,
2013-04-30 12:00:00,77.4,74.9,29.95,SW,225,4.3,5.8,92,0.77,RA,,0.79,WeatherDisplay:10.37,2013-04-30 22:00:00,
2013-04-30 12:05:00,77.4,74.9,29.95,SW,225,5.0,6.0,92,0.00,RA,,0.80,WeatherDisplay:10.37,2013-04-30 22:05:00,
2013-04-30 12:10:00,77.0,74.2,29.95,SW,229,6.0,7.0,91,0.00,RA,,0.81,WeatherDisplay:10.37,2013-04-30 22:10:00,
2013-04-30 12:15:00,77.7,74.9,29.95,SW,231,5.0,6.0,91,0.00,RA,,0.81,WeatherDisplay:10.37,2013-04-30 22:15:00,
2013-04-30 12:20:00,77.5,74.3,29.95,SW,219,5.0,7.0,90,0.00,,,0.81,WeatherDisplay:10.37,2013-04-30 22:20:00,
2013-04-30 12:25:00,77.7,74.5,29.95,SW,222,5.0,7.0,90,0.00,RA,,0.82,WeatherDisplay:10.37,2013-04-30 22:25:00,
2013-04-30 12:30:00,77.5,74.0,29.95,WSW,237,3.0,5.0,89,0.00,RA,,0.82,WeatherDisplay:10.37,2013-04-30 22:30:00,
2013-04-30 12:35:00,77.8,73.9,29.95,West,260,3.0,5.0,88,0.00,,,0.82,WeatherDisplay:10.37,2013-04-30 22:35:00,
2013-04-30 12:40:00,77.6,73.1,29.94,WSW,258,3.0,5.0,86,0.00,CLR,,0.82,WeatherDisplay:10.37,2013-04-30 22:40:00,
2013-04-30 12:45:00,78.4,73.2,29.94,WSW,244,2.0,5.0,84,0.00,CLR,,0.82,WeatherDisplay:10.37,2013-04-30 22:45:00,
2013-04-30 12:50:00,79.0,72.0,29.94,WSW,253,0.0,3.0,79,0.00,CLR,,0.82,WeatherDisplay:10.37,2013-04-30 22:50:00,
2013-04-30 12:55:00,78.6,70.8,29.94,NNW,346,3.0,4.0,77,0.00,CLR,,0.82,WeatherDisplay:10.37,2013-04-30 22:55:00,
2013-04-30 13:00:00,78.7,72.0,29.94,NNE,26,3.0,5.0,80,0.00,CLR,,0.82,WeatherDisplay:10.37,2013-04-30 23:00:00,
2013-04-30 13:05:00,78.8,71.4,29.94,NNE,27,2.0,4.0,78,0.00,CLR,,0.82,WeatherDisplay:10.37,2013-04-30 23:05:00,
2013-04-30 13:10:00,79.1,70.8,29.94,NE,47,2.0,5.0,76,0.00,CLR,,0.82,WeatherDisplay:10.37,2013-04-30 23:10:00,
2013-04-30 13:15:00,79.0,70.8,29.93,East,80,2.0,5.0,76,0.00,CLR,,0.82,WeatherDisplay:10.37,2013-04-30 23:15:00,
2013-04-30 13:20:00,79.2,71.7,29.93,ENE,78,2.0,4.0,78,0.00,CLR,,0.82,WeatherDisplay:10.37,2013-04-30 23:20:00,
2013-04-30 13:25:00,78.8,71.0,29.94,NNE,22,4.1,4.6,77,0.00,CLR,,0.82,WeatherDisplay:10.37,2013-04-30 23:25:00,
2013-04-30 13:30:00,79.0,71.9,29.94,WNW,292,3.2,4.6,79,0.00,CLR,,0.82,WeatherDisplay:10.37,2013-04-30 23:30:00,
2013-04-30 13:35:00,79.3,72.6,29.93,NW,315,2.6,3.5,80,0.00,CLR,,0.82,WeatherDisplay:10.37,2013-04-30 23:35:00,
2013-04-30 13:40:00,80.1,73.0,29.93,NE,45,4.3,5.8,79,0.00,CLR,,0.82,WeatherDisplay:10.37,2013-04-30 23:40:00,
2013-04-30 13:45:00,81.3,73.8,29.93,NNE,22,4.1,5.8,78,0.00,CLR,,0.82,WeatherDisplay:10.37,2013-04-30 23:45:00,
2013-04-30 13:50:00,80.8,72.9,29.93,NNE,22,4.7,5.8,77,0.00,CLR,,0.82,WeatherDisplay:10.37,2013-04-30 23:50:00,
2013-04-30 13:55:00,80.8,72.5,29.93,NNE,22,4.9,6.3,76,0.00,CLR,,0.82,WeatherDisplay:10.37,2013-04-30 23:55:00,
2013-04-30 14:00:00,81.1,72.4,29.93,East,90,5.2,6.9,75,0.00,CLR,,0.82,WeatherDisplay:10.37,2013-05-01 00:00:00,
2013-04-30 14:05:00,82.2,73.1,29.93,ESE,112,4.3,4.6,74,0.00,CLR,,0.82,WeatherDisplay:10.37,2013-05-01 00:05:00,
2013-04-30 14:10:00,82.4,73.3,29.92,ESE,112,4.1,4.6,74,0.00,CLR,,0.82,WeatherDisplay:10.37,2013-05-01 00:10:00,
2013-04-30 14:15:00,82.0,71.7,29.92,SSE,158,6.3,6.9,71,0.00,CLR,,0.82,WeatherDisplay:10.37,2013-05-01 00:15:00,
2013-04-30 14:20:00,81.5,71.6,29.92,ENE,68,4.7,5.8,72,0.00,CLR,,0.82,WeatherDisplay:10.37,2013-05-01 00:20:00,
2013-04-30 14:25:00,80.8,72.1,29.92,South,180,5.1,5.1,75,0.00,CLR,,0.82,WeatherDisplay:10.37,2013-05-01 00:25:00,
2013-04-30 14:30:00,79.0,72.3,29.92,SW,225,4.6,5.8,80,0.00,CLR,,0.82,WeatherDisplay:10.37,2013-05-01 00:30:00,
2013-04-30 14:36:00,78.8,72.5,29.93,SW,225,5.4,6.9,81,0.00,CLR,,0.82,WeatherDisplay:10.37,2013-05-01 00:36:00,
2013-04-30 14:41:00,78.3,72.3,29.93,WSW,248,5.2,5.8,82,0.00,CLR,,0.82,WeatherDisplay:10.37,2013-05-01 00:41:00,
2013-04-30 14:46:00,77.9,72.3,29.93,South,180,5.4,5.8,83,0.00,CLR,,0.82,WeatherDisplay:10.37,2013-05-01 00:46:00,
2013-04-30 14:51:00,77.9,72.7,29.93,WSW,248,5.4,6.9,84,0.00,CLR,,0.82,WeatherDisplay:10.37,2013-05-01 00:51:00,
2013-04-30 14:56:00,77.0,71.4,29.93,WSW,248,6.3,6.9,83,0.00,CLR,,0.82,WeatherDisplay:10.37,2013-05-01 00:56:00,
2013-04-30 15:01:00,77.2,72.3,29.92,WSW,248,4.4,5.8,85,0.00,CLR,,0.82,WeatherDisplay:10.37,2013-05-01 01:01:00,
2013-04-30 15:06:00,76.8,71.9,29.92,SW,225,5.5,6.8,85,0.00,CLR,,0.82,WeatherDisplay:10.37,2013-05-01 01:06:00,
2013-04-30 15:11:00,77.0,71.8,29.92,SSW,202,4.4,5.8,84,0.00,CLR,,0.82,WeatherDisplay:10.37,2013-05-01 01:11:00,
2013-04-30 15:16:00,77.7,71.8,29.92,SW,225,4.5,5.8,82,0.00,CLR,,0.82,WeatherDisplay:10.37,2013-05-01 01:16:00,
2013-04-30 15:21:00,77.7,71.4,29.92,West,270,3.2,5.8,81,0.00,CLR,,0.82,WeatherDisplay:10.37,2013-05-01 01:21:00,
2013-04-30 15:26:00,78.4,72.1,29.92,South,180,4.0,4.6,81,0.00,CLR,,0.82,WeatherDisplay:10.37,2013-05-01 01:26:00,
2013-04-30 15:31:00,79.0,72.3,29.92,South,180,4.1,5.8,80,0.00,CLR,,0.82,WeatherDisplay:10.37,2013-05-01 01:31:00,
2013-04-30 15:36:00,78.4,72.1,29.92,ESE,112,3.4,4.6,81,0.00,CLR,,0.82,WeatherDisplay:10.37,2013-05-01 01:36:00,
2013-04-30 15:41:00,78.4,71.0,29.92,SSE,158,3.4,4.6,78,0.00,CLR,,0.82,WeatherDisplay:10.37,2013-05-01 01:41:00,
2013-04-30 15:47:00,78.3,71.2,29.92,SSE,158,2.5,3.5,79,0.00,CLR,,0.82,WeatherDisplay:10.37,2013-05-01 01:47:00,
2013-04-30 15:52:00,78.8,71.7,29.92,SSE,158,3.2,3.7,79,0.00,CLR,,0.82,WeatherDisplay:10.37,2013-05-01 01:52:00,
2013-04-30 15:57:00,78.6,70.8,29.92,South,180,3.4,3.7,77,0.00,CLR,,0.82,WeatherDisplay:10.37,2013-05-01 01:57:00,
2013-04-30 16:02:00,78.4,71.3,29.92,South,180,2.9,3.5,79,0.00,CLR,,0.82,WeatherDisplay:10.37,2013-05-01 02:02:00,
2013-04-30 16:07:00,78.4,70.6,29.92,South,180,3.9,4.7,77,0.00,CLR,,0.82,WeatherDisplay:10.37,2013-05-01 02:07:00,
2013-04-30 16:12:00,79.2,71.7,29.92,SSW,202,2.0,2.3,78,0.00,CLR,,0.82,WeatherDisplay:10.37,2013-05-01 02:12:00,
2013-04-30 16:17:00,79.2,71.4,29.92,South,180,2.5,2.7,77,0.00,CLR,,0.82,WeatherDisplay:10.37,2013-05-01 02:17:00,
2013-04-30 16:22:00,79.3,71.1,29.92,SE,135,0.9,1.7,76,0.00,CLR,,0.82,WeatherDisplay:10.37,2013-05-01 02:22:00,
2013-04-30 16:27:00,79.0,70.0,29.92,ESE,112,2.1,3.5,74,0.00,CLR,,0.82,WeatherDisplay:10.37,2013-05-01 02:27:00,
2013-04-30 16:32:00,79.7,70.3,29.92,SSE,158,1.6,2.2,73,0.00,CLR,,0.82,WeatherDisplay:10.37,2013-05-01 02:32:00,
2013-04-30 16:37:00,80.4,70.9,29.91,SSW,202,1.0,2.3,73,0.00,CLR,,0.82,WeatherDisplay:10.37,2013-05-01 02:37:00,
2013-04-30 16:42:00,80.2,71.2,29.91,SSW,202,0.3,2.3,74,0.00,CLR,,0.82,WeatherDisplay:10.37,2013-05-01 02:42:00,
2013-04-30 16:47:00,81.0,71.5,29.91,SSW,202,2.0,2.3,73,0.00,CLR,,0.82,WeatherDisplay:10.37,2013-05-01 02:47:00,
2013-04-30 16:52:00,81.7,71.8,29.91,SW,225,2.2,2.2,72,0.00,CLR,,0.82,WeatherDisplay:10.37,2013-05-01 02:52:00,
2013-04-30 16:58:00,82.6,72.2,29.91,SW,225,1.0,2.3,71,0.00,CLR,,0.82,WeatherDisplay:10.37,2013-05-01 02:58:00,
2013-04-30 17:03:00,83.5,72.3,29.92,SW,225,1.7,2.7,69,0.00,CLR,,0.82,WeatherDisplay:10.37,2013-05-01 03:03:00,
2013-04-30 17:08:00,82.9,71.3,29.92,West,270,1.9,2.3,68,0.00,CLR,,0.82,WeatherDisplay:10.37,2013-05-01 03:08:00,
2013-04-30 17:13:00,82.9,71.7,29.92,WSW,248,2.0,2.3,69,0.00,CLR,,0.82,WeatherDisplay:10.37,2013-05-01 03:13:00,
2013-04-30 17:18:00,82.4,71.2,29.92,WNW,292,1.4,2.2,69,0.00,CLR,,0.82,WeatherDisplay:10.37,2013-05-01 03:18:00,
2013-04-30 17:23:00,82.2,71.0,29.92,SW,225,1.4,1.7,69,0.00,CLR,,0.82,WeatherDisplay:10.37,2013-05-01 03:23:00,
2013-04-30 17:28:00,82.2,71.0,29.92,SW,225,2.0,2.3,69,0.00,CLR,,0.82,WeatherDisplay:10.37,2013-05-01 03:28:00,
2013-04-30 17:33:00,81.7,71.4,29.92,SW,225,2.1,2.3,71,0.00,CLR,,0.82,WeatherDisplay:10.37,2013-05-01 03:33:00,
2013-04-30 17:38:00,81.1,70.8,29.92,SSW,202,2.5,2.7,71,0.00,CLR,,0.82,WeatherDisplay:10.37,2013-05-01 03:38:00,
2013-04-30 17:43:00,80.8,71.7,29.92,West,270,1.8,2.3,74,0.00,CLR,,0.82,WeatherDisplay:10.37,2013-05-01 03:43:00,
2013-04-30 17:49:00,80.1,71.1,29.92,West,270,0.0,0.0,74,0.00,CLR,,0.82,WeatherDisplay:10.37,2013-05-01 03:49:00,
2013-04-30 17:54:00,79.9,71.3,29.92,SW,225,0.9,1.2,75,0.00,CLR,,0.82,WeatherDisplay:10.37,2013-05-01 03:54:00,
2013-04-30 17:59:00,79.3,71.1,29.92,SSW,202,0.9,1.2,76,0.00,CLR,,0.82,WeatherDisplay:10.37,2013-05-01 03:59:00,
2013-04-30 18:01:00,79.3,71.5,29.92,SW,225,1.8,2.3,77,0.00,CLR,,0.82,WeatherDisplay:10.37,2013-05-01 04:01:00,
2013-04-30 18:02:00,79.3,71.5,29.92,West,270,0.3,1.2,77,0.00,CLR,,0.82,WeatherDisplay:10.37,2013-05-01 04:02:00,
2013-04-30 18:07:00,79.0,71.2,29.92,SSW,202,1.7,2.3,77,0.00,CLR,,0.82,WeatherDisplay:10.37,2013-05-01 04:07:00,
2013-04-30 18:12:00,78.4,71.3,29.93,SW,225,2.2,2.7,79,0.00,CLR,,0.82,WeatherDisplay:10.37,2013-05-01 04:12:00,
2013-04-30 18:17:00,78.4,71.7,29.93,SSW,202,0.8,1.2,80,0.00,CLR,,0.82,WeatherDisplay:10.37,2013-05-01 04:17:00,
2013-04-30 18:22:00,77.9,71.2,29.93,SSW,202,2.5,2.5,80,0.00,CLR,,0.82,WeatherDisplay:10.37,2013-05-01 04:22:00,
2013-04-30 18:27:00,77.5,71.2,29.93,South,180,2.1,2.3,81,0.00,CLR,,0.82,WeatherDisplay:10.37,2013-05-01 04:27:00,
2013-04-30 18:32:00,77.4,71.5,29.93,South,180,0.0,0.0,82,0.00,CLR,,0.82,WeatherDisplay:10.37,2013-05-01 04:32:00,
2013-04-30 18:37:00,77.2,71.3,29.93,SW,225,0.0,0.0,82,0.00,CLR,,0.82,WeatherDisplay:10.37,2013-05-01 04:37:00,
2013-04-30 18:42:00,77.0,71.4,29.93,SW,225,0.0,0.0,83,0.00,CLR,,0.82,WeatherDisplay:10.37,2013-05-01 04:42:00,
2013-04-30 18:47:00,76.5,71.3,29.94,SSW,202,2.1,2.3,84,0.00,CLR,,0.82,WeatherDisplay:10.37,2013-05-01 04:47:00,
2013-04-30 18:52:00,76.3,71.1,29.94,SSE,158,2.2,3.5,84,0.00,CLR,,0.82,WeatherDisplay:10.37,2013-05-01 04:52:00,
2013-04-30 18:58:00,76.3,71.8,29.94,SW,225,1.9,2.3,86,0.00,CLR,,0.82,WeatherDisplay:10.37,2013-05-01 04:58:00,
2013-04-30 19:03:00,76.3,71.8,29.94,WSW,248,0.0,0.0,86,0.00,CLR,,0.82,WeatherDisplay:10.37,2013-05-01 05:03:00,
2013-04-30 19:08:00,76.1,71.6,29.94,East,90,0.0,0.0,86,0.00,CLR,,0.82,WeatherDisplay:10.37,2013-05-01 05:08:00,
2013-04-30 19:13:00,76.1,71.6,29.95,SSE,158,0.0,0.0,86,0.00,CLR,,0.82,WeatherDisplay:10.37,2013-05-01 05:13:00,
2013-04-30 19:18:00,75.9,71.4,29.95,SSW,202,0.0,0.0,86,0.00,CLR,,0.82,WeatherDisplay:10.37,2013-05-01 05:18:00,
2013-04-30 19:23:00,75.9,71.8,29.95,SSW,202,1.6,2.3,87,0.00,CLR,,0.82,WeatherDisplay:10.37,2013-05-01 05:23:00,
2013-04-30 19:28:00,75.9,71.8,29.95,SW,225,1.8,2.3,87,0.00,CLR,,0.82,WeatherDisplay:10.37,2013-05-01 05:28:00,
2013-04-30 19:33:00,75.9,71.8,29.95,SSE,158,0.7,2.3,87,0.00,CLR,,0.82,WeatherDisplay:10.37,2013-05-01 05:33:00,
2013-04-30 19:38:00,75.9,71.8,29.96,SW,225,0.0,1.2,87,0.00,CLR,,0.82,WeatherDisplay:10.37,2013-05-01 05:38:00,
2013-04-30 19:43:00,75.9,71.8,29.96,NW,315,0.0,0.0,87,0.00,CLR,,0.82,WeatherDisplay:10.37,2013-05-01 05:43:00,
2013-04-30 19:48:00,75.9,72.1,29.96,South,180,0.0,0.0,88,0.00,CLR,,0.82,WeatherDisplay:10.37,2013-05-01 05:48:00,
2013-04-30 19:53:00,75.9,72.1,29.96,SW,225,0.0,0.0,88,0.00,CLR,,0.82,WeatherDisplay:10.37,2013-05-01 05:53:00,
2013-04-30 19:58:00,75.7,71.9,29.97,SW,225,0.0,0.0,88,0.00,CLR,,0.82,WeatherDisplay:10.37,2013-05-01 05:58:00,
2013-04-30 20:03:00,75.7,71.9,29.97,SSW,202,0.0,0.0,88,0.00,CLR,,0.82,WeatherDisplay:10.37,2013-05-01 06:03:00,
2013-04-30 20:09:00,75.9,72.1,29.97,SSE,158,0.0,0.0,88,0.00,CLR,,0.82,WeatherDisplay:10.37,2013-05-01 06:09:00,
2013-04-30 20:14:00,75.9,72.4,29.97,SSW,202,2.3,2.7,89,0.00,CLR,,0.82,WeatherDisplay:10.37,2013-05-01 06:14:00,
2013-04-30 20:19:00,75.9,72.1,29.97,South,180,1.7,1.7,88,0.00,CLR,,0.82,WeatherDisplay:10.37,2013-05-01 06:19:00,
2013-04-30 20:24:00,75.9,72.4,29.98,SW,225,0.0,0.0,89,0.00,CLR,,0.82,WeatherDisplay:10.37,2013-05-01 06:24:00,
2013-04-30 20:29:00,75.9,72.4,29.98,SSE,158,0.0,0.0,89,0.00,CLR,,0.82,WeatherDisplay:10.37,2013-05-01 06:29:00,
2013-04-30 20:34:00,75.9,72.4,29.98,SSW,202,1.3,2.3,89,0.00,CLR,,0.82,WeatherDisplay:10.37,2013-05-01 06:34:00,
2013-04-30 20:39:00,75.9,72.4,29.98,South,180,2.0,2.3,89,0.00,CLR,,0.82,WeatherDisplay:10.37,2013-05-01 06:39:00,
2013-04-30 20:44:00,75.9,72.4,29.98,SSE,158,0.0,0.0,89,0.00,CLR,,0.82,WeatherDisplay:10.37,2013-05-01 06:44:00,
2013-04-30 20:49:00,75.7,72.2,29.99,SSW,202,0.0,0.0,89,0.00,CLR,,0.82,WeatherDisplay:10.37,2013-05-01 06:49:00,
2013-04-30 20:54:00,75.7,72.6,29.99,SW,225,0.0,1.2,90,0.00,CLR,,0.82,WeatherDisplay:10.37,2013-05-01 06:54:00,
2013-04-30 20:59:00,75.7,72.6,29.99,ESE,112,3.3,3.7,90,0.00,CLR,,0.82,WeatherDisplay:10.37,2013-05-01 06:59:00,
2013-04-30 21:04:00,75.7,72.6,29.99,SW,225,2.3,2.3,90,0.00,CLR,,0.82,WeatherDisplay:10.37,2013-05-01 07:04:00,
2013-04-30 21:09:00,75.7,72.6,29.99,SW,225,2.8,2.8,90,0.00,CLR,,0.82,WeatherDisplay:10.37,2013-05-01 07:09:00,
2013-04-30 21:14:00,75.6,72.5,29.99,NE,45,0.0,0.0,90,0.00,CLR,,0.82,WeatherDisplay:10.37,2013-05-01 07:14:00,
2013-04-30 21:20:00,75.6,72.5,29.99,SE,126,1.0,2.0,90,0.00,CLR,,0.82,WeatherDisplay:10.37,2013-05-01 07:20:00,
2013-04-30 21:25:00,75.6,72.5,29.99,SSW,195,1.0,3.0,90,0.00,CLR,,0.82,WeatherDisplay:10.37,2013-05-01 07:25:00,
2013-04-30 21:30:00,75.6,72.5,29.99,SSW,203,0.0,0.0,90,0.00,CLR,,0.82,WeatherDisplay:10.37,2013-05-01 07:30:00,
2013-04-30 21:34:00,75.6,72.5,29.99,ESE,112,0.0,0.0,90,0.00,CLR,,0.82,WeatherDisplay:10.37,2013-05-01 07:34:00,
2013-04-30 21:40:00,75.6,72.5,30.00,SSE,160,1.0,3.0,90,0.00,CLR,,0.82,WeatherDisplay:10.37,2013-05-01 07:40:00,
2013-04-30 21:45:00,75.6,72.5,30.00,SSW,192,2.0,3.0,90,0.00,CLR,,0.82,WeatherDisplay:10.37,2013-05-01 07:45:00,
2013-04-30 21:50:00,75.6,72.5,30.00,SSW,202,2.0,3.0,90,0.00,CLR,,0.82,WeatherDisplay:10.37,2013-05-01 07:50:00,
2013-04-30 21:55:00,75.6,72.5,30.00,SSW,208,0.0,3.0,90,0.00,CLR,,0.82,WeatherDisplay:10.37,2013-05-01 07:55:00,
2013-04-30 22:00:00,75.6,72.5,30.00,SW,219,0.0,3.0,90,0.00,CLR,,0.82,WeatherDisplay:10.37,2013-05-01 08:00:00,
2013-04-30 22:05:00,75.6,72.5,30.00,SW,225,0.0,0.0,90,0.00,CLR,,0.82,WeatherDisplay:10.37,2013-05-01 08:05:00,
2013-04-30 22:10:00,75.6,72.5,30.00,SW,225,0.0,0.0,90,0.00,CLR,,0.82,WeatherDisplay:10.37,2013-05-01 08:10:00,
2013-04-30 22:15:00,75.6,72.5,30.00,SW,225,0.0,0.0,90,0.00,CLR,,0.82,WeatherDisplay:10.37,2013-05-01 08:15:00,
2013-04-30 22:20:00,75.6,72.5,30.00,SSW,207,0.0,0.0,90,0.00,CLR,,0.82,WeatherDisplay:10.37,2013-05-01 08:20:00,
2013-04-30 22:25:00,75.6,72.5,29.99,South,177,0.0,0.0,90,0.00,CLR,,0.82,WeatherDisplay:10.37,2013-05-01 08:25:00,
2013-04-30 22:30:00,75.6,72.5,29.99,South,182,0.0,0.0,90,0.00,CLR,,0.82,WeatherDisplay:10.37,2013-05-01 08:30:00,
2013-04-30 22:35:00,75.6,72.5,29.99,South,185,0.0,0.0,90,0.00,CLR,,0.82,WeatherDisplay:10.37,2013-05-01 08:35:00,
2013-04-30 22:40:00,75.4,72.3,29.99,South,180,0.0,0.0,90,0.00,CLR,,0.82,WeatherDisplay:10.37,2013-05-01 08:40:00,
2013-04-30 22:45:00,75.4,72.3,29.99,South,180,0.0,0.0,90,0.00,CLR,,0.82,WeatherDisplay:10.37,2013-05-01 08:45:00,
2013-04-30 22:50:00,75.2,72.1,30.00,South,180,0.0,0.0,90,0.00,CLR,,0.82,WeatherDisplay:10.37,2013-05-01 08:50:00,
2013-04-30 22:55:00,75.2,72.1,30.00,South,180,0.0,0.0,90,0.00,CLR,,0.82,WeatherDisplay:10.37,2013-05-01 08:55:00,
2013-04-30 23:00:00,75.2,72.1,30.00,SSW,209,1.0,3.0,90,0.00,CLR,,0.82,WeatherDisplay:10.37,2013-05-01 09:00:00,
2013-04-30 23:05:00,75.2,72.1,30.00,NNW,329,0.0,2.0,90,0.00,CLR,,0.82,WeatherDisplay:10.37,2013-05-01 09:05:00,
2013-04-30 23:10:00,75.2,72.1,30.00,East,90,0.0,0.0,90,0.00,CLR,,0.82,WeatherDisplay:10.37,2013-05-01 09:10:00,
2013-04-30 23:15:00,75.4,72.3,30.00,East,98,0.0,0.0,90,0.00,CLR,,0.82,WeatherDisplay:10.37,2013-05-01 09:15:00,
2013-04-30 23:20:00,75.4,72.3,30.00,West,270,0.0,0.0,90,0.00,CLR,,0.82,WeatherDisplay:10.37,2013-05-01 09:20:00,
2013-04-30 23:25:00,75.4,72.3,30.00,WNW,286,0.0,0.0,90,0.00,CLR,,0.82,WeatherDisplay:10.37,2013-05-01 09:25:00,
2013-04-30 23:30:00,75.4,72.3,30.00,WSW,255,0.0,0.0,90,0.00,CLR,,0.82,WeatherDisplay:10.37,2013-05-01 09:30:00,
2013-04-30 23:35:00,75.4,72.3,30.00,SSE,158,0.0,0.0,90,0.00,CLR,,0.82,WeatherDisplay:10.37,2013-05-01 09:35:00,
2013-04-30 23:40:00,75.4,72.3,29.99,ESE,108,0.0,0.0,90,0.00,CLR,,0.82,WeatherDisplay:10.37,2013-05-01 09:40:00,
2013-04-30 23:45:00,75.4,72.3,29.99,SSE,166,0.0,0.0,90,0.00,CLR,,0.82,WeatherDisplay:10.37,2013-05-01 09:45:00,
2013-04-30 23:50:00,75.4,72.3,29.99,SW,222,0.0,0.0,90,0.00,CLR,,0.82,WeatherDisplay:10.37,2013-05-01 09:50:00,
2013-04-30 23:54:00,75.4,72.3,29.99,SW,225,0.0,0.0,90,0.00,CLR,,0.82,WeatherDisplay:10.37,2013-05-01 09:54:00,